createdAt,value
2018-11-12T00:00:02.457Z,99.99
2018-11-12T00:01:03.055Z,99.99
2018-11-12T00:02:03.655Z,99.99
2018-11-12T00:03:04.248Z,99.99
2018-11-12T00:04:04.846Z,99.99
2018-11-12T00:05:05.441Z,99.99
2018-11-12T00:06:06.035Z,99.99
2018-11-12T00:07:06.633Z,99.99
2018-11-12T00:08:07.220Z,99.99
2018-11-12T00:09:07.813Z,99.99
2018-11-12T00:10:08.404Z,99.99
2018-11-12T00:11:09.001Z,99.99
2018-11-12T00:12:09.595Z,99.99
2018-11-12T00:13:10.187Z,99.99
2018-11-12T00:14:10.791Z,99.99
2018-11-12T00:15:11.374Z,99.99
2018-11-12T00:16:11.970Z,99.99
2018-11-12T00:17:12.560Z,99.99
2018-11-12T00:18:13.157Z,99.99
2018-11-12T00:19:13.753Z,99.99
2018-11-12T00:20:14.344Z,99.99
2018-11-12T00:21:14.935Z,99.99
2018-11-12T00:22:15.534Z,99.99
2018-11-12T00:23:16.127Z,99.99
2018-11-12T00:24:16.725Z,99.99
2018-11-12T00:25:17.337Z,99.99
2018-11-12T00:26:17.910Z,99.99
2018-11-12T00:27:18.502Z,99.99
2018-11-12T00:28:19.094Z,99.99
2018-11-12T00:29:19.690Z,99.99
2018-11-12T00:30:20.285Z,99.99
2018-11-12T00:31:20.876Z,99.99
2018-11-12T00:32:21.471Z,99.99
2018-11-12T00:33:22.067Z,99.99
2018-11-12T00:34:22.665Z,99.99
2018-11-12T00:35:23.262Z,99.99
2018-11-12T00:36:23.856Z,99.99
2018-11-12T00:37:24.449Z,99.99
2018-11-12T00:38:25.042Z,99.99
2018-11-12T00:39:25.631Z,99.99
2018-11-12T00:40:26.227Z,99.99
2018-11-12T00:41:26.820Z,99.99
2018-11-12T00:42:27.417Z,99.99
2018-11-12T00:43:28.015Z,99.99
2018-11-12T00:44:28.606Z,99.99
2018-11-12T00:45:29.205Z,99.99
2018-11-12T00:46:29.792Z,99.99
2018-11-12T00:47:30.384Z,99.99
2018-11-12T00:48:30.983Z,99.99
2018-11-12T00:49:31.580Z,99.99
2018-11-12T00:50:32.176Z,99.99
2018-11-12T00:51:32.776Z,99.99
2018-11-12T00:52:33.376Z,99.99
2018-11-12T00:53:33.972Z,99.99
2018-11-12T00:54:34.565Z,99.99
2018-11-12T00:55:35.161Z,99.99
2018-11-12T00:56:35.759Z,99.99
2018-11-12T00:57:36.353Z,99.99
2018-11-12T00:58:36.952Z,99.99
2018-11-12T00:59:37.540Z,99.99
2018-11-12T01:00:38.135Z,99.99
2018-11-12T01:01:38.751Z,99.99
2018-11-12T01:02:39.359Z,99.99
2018-11-12T01:03:39.946Z,99.99
2018-11-12T01:04:40.544Z,99.99
2018-11-12T01:05:41.135Z,99.99
2018-11-12T01:06:41.728Z,99.99
2018-11-12T01:07:42.331Z,99.99
2018-11-12T01:08:42.920Z,99.99
2018-11-12T01:09:43.504Z,99.99
2018-11-12T01:10:44.102Z,99.99
2018-11-12T01:11:44.694Z,99.99
2018-11-12T01:12:45.288Z,99.99
2018-11-12T01:13:45.879Z,99.99
2018-11-12T01:14:46.476Z,99.99
2018-11-12T01:15:47.071Z,99.99
2018-11-12T01:16:47.664Z,99.99
2018-11-12T01:17:48.260Z,99.99
2018-11-12T01:18:48.864Z,99.99
2018-11-12T01:19:49.452Z,99.99
2018-11-12T01:20:50.050Z,99.99
2018-11-12T01:21:50.646Z,99.99
2018-11-12T01:22:51.244Z,99.99
2018-11-12T01:23:51.836Z,99.99
2018-11-12T01:24:52.431Z,99.99
2018-11-12T01:25:53.028Z,99.99
2018-11-12T01:26:53.618Z,99.99
2018-11-12T01:27:54.213Z,99.99
2018-11-12T01:28:54.807Z,99.99
2018-11-12T01:29:55.403Z,99.99
2018-11-12T01:30:56.000Z,99.99
2018-11-12T01:31:56.600Z,99.99
2018-11-12T01:32:57.197Z,99.99
2018-11-12T01:33:57.793Z,99.99
2018-11-12T01:34:58.392Z,99.99
2018-11-12T01:35:58.985Z,99.99
2018-11-12T01:36:59.579Z,99.99
2018-11-12T01:38:00.175Z,99.99
2018-11-12T01:39:00.775Z,99.99
2018-11-12T01:40:01.366Z,99.99
2018-11-12T01:41:01.964Z,99.99
2018-11-12T01:42:02.631Z,99.99
2018-11-12T01:43:03.156Z,99.99
2018-11-12T01:44:03.751Z,99.99
2018-11-12T01:45:04.344Z,99.99
2018-11-12T01:46:04.942Z,99.99
2018-11-12T01:47:05.532Z,99.99
2018-11-12T01:48:06.123Z,99.99
2018-11-12T01:49:06.722Z,99.99
2018-11-12T01:50:07.310Z,99.99
2018-11-12T01:51:07.906Z,99.99
2018-11-12T01:52:08.506Z,99.99
2018-11-12T01:53:09.102Z,99.99
2018-11-12T01:54:09.695Z,99.99
2018-11-12T01:55:10.293Z,99.99
2018-11-12T01:56:10.886Z,99.99
2018-11-12T01:57:11.482Z,99.99
2018-11-12T01:58:12.076Z,99.99
2018-11-12T01:59:12.672Z,99.99
2018-11-12T02:00:13.346Z,99.99
2018-11-12T02:01:13.852Z,99.99
2018-11-12T02:02:14.453Z,99.99
2018-11-12T02:03:15.045Z,99.99
2018-11-12T02:04:15.639Z,99.99
2018-11-12T02:05:16.242Z,99.99
2018-11-12T02:06:16.830Z,99.99
2018-11-12T02:07:17.432Z,99.99
2018-11-12T02:08:18.027Z,99.99
2018-11-12T02:09:18.623Z,99.99
2018-11-12T02:10:19.216Z,99.99
2018-11-12T02:11:19.815Z,99.99
2018-11-12T02:12:20.403Z,99.99
2018-11-12T02:13:21.004Z,99.99
2018-11-12T02:14:21.615Z,99.99
2018-11-12T02:15:22.194Z,99.99
2018-11-12T02:16:22.809Z,99.99
2018-11-12T02:17:23.385Z,99.99
2018-11-12T02:18:23.971Z,99.99
2018-11-12T02:19:24.563Z,99.99
2018-11-12T02:20:25.154Z,99.99
2018-11-12T02:21:25.745Z,99.99
2018-11-12T02:22:26.409Z,99.99
2018-11-12T02:23:26.937Z,99.99
2018-11-12T02:24:27.536Z,99.99
2018-11-12T02:25:28.129Z,99.99
2018-11-12T02:26:28.728Z,99.99
2018-11-12T02:27:29.318Z,99.99
2018-11-12T02:28:29.936Z,99.99
2018-11-12T02:29:30.534Z,99.99
2018-11-12T02:30:31.183Z,99.99
2018-11-12T02:31:31.696Z,99.99
2018-11-12T02:32:32.288Z,99.99
2018-11-12T02:33:32.883Z,99.99
2018-11-12T02:34:33.480Z,99.99
2018-11-12T02:35:34.074Z,99.99
2018-11-12T02:36:34.663Z,99.99
2018-11-12T02:37:35.254Z,99.99
2018-11-12T02:38:35.846Z,99.99
2018-11-12T02:39:36.445Z,99.99
2018-11-12T02:40:37.040Z,99.99
2018-11-12T02:41:37.640Z,99.99
2018-11-12T02:42:38.230Z,99.99
2018-11-12T02:43:38.822Z,99.99
2018-11-12T02:44:39.418Z,99.99
2018-11-12T02:45:40.014Z,99.99
2018-11-12T02:46:40.607Z,99.99
2018-11-12T02:47:41.204Z,99.99
2018-11-12T02:48:41.797Z,99.99
2018-11-12T02:49:42.399Z,99.99
2018-11-12T02:50:42.990Z,99.99
2018-11-12T02:51:43.587Z,99.99
2018-11-12T02:52:44.182Z,99.99
2018-11-12T02:53:44.771Z,99.99
2018-11-12T02:54:45.367Z,99.99
2018-11-12T02:55:45.967Z,99.99
2018-11-12T02:56:46.561Z,99.99
2018-11-12T02:57:47.158Z,99.99
2018-11-12T02:58:47.764Z,99.99
2018-11-12T02:59:48.352Z,99.99
2018-11-12T03:00:48.946Z,99.99
2018-11-12T03:01:49.543Z,99.99
2018-11-12T03:02:50.140Z,99.99
2018-11-12T03:03:50.738Z,99.99
2018-11-12T03:04:51.331Z,99.99
2018-11-12T03:05:51.924Z,99.99
2018-11-12T03:06:52.519Z,99.99
2018-11-12T03:07:53.117Z,99.99
2018-11-12T03:08:53.719Z,99.99
2018-11-12T03:09:54.312Z,99.99
2018-11-12T03:10:54.913Z,99.99
2018-11-12T03:11:55.508Z,99.99
2018-11-12T03:12:56.096Z,99.99
2018-11-12T03:13:56.686Z,99.99
2018-11-12T03:14:57.283Z,99.99
2018-11-12T03:15:57.879Z,99.99
2018-11-12T03:16:58.477Z,99.99
2018-11-12T03:17:59.074Z,99.99
2018-11-12T03:18:59.668Z,99.99
2018-11-12T03:20:00.272Z,99.99
2018-11-12T03:21:00.857Z,99.99
2018-11-12T03:22:01.460Z,99.99
2018-11-12T03:23:02.044Z,99.99
2018-11-12T03:24:02.631Z,99.99
2018-11-12T03:25:03.229Z,99.99
2018-11-12T03:26:03.827Z,99.99
2018-11-12T03:27:04.415Z,99.99
2018-11-12T03:28:05.014Z,99.99
2018-11-12T03:29:05.611Z,99.99
2018-11-12T03:30:06.213Z,99.99
2018-11-12T03:31:06.802Z,99.99
2018-11-12T03:32:07.402Z,99.99
2018-11-12T03:33:07.994Z,99.99
2018-11-12T03:34:08.588Z,99.99
2018-11-12T03:35:09.176Z,99.99
2018-11-12T03:36:09.768Z,99.99
2018-11-12T03:37:10.368Z,99.99
2018-11-12T03:38:10.963Z,99.99
2018-11-12T03:39:11.565Z,99.99
2018-11-12T03:40:12.161Z,99.99
2018-11-12T03:41:12.754Z,99.99
2018-11-12T03:42:13.378Z,99.99
2018-11-12T03:43:13.949Z,99.99
2018-11-12T03:44:14.545Z,99.99
2018-11-12T03:45:15.145Z,99.99
2018-11-12T03:46:15.734Z,99.99
2018-11-12T03:47:16.329Z,99.99
2018-11-12T03:48:16.925Z,99.99
2018-11-12T03:49:17.526Z,99.99
2018-11-12T03:50:18.118Z,99.99
2018-11-12T03:51:18.713Z,99.99
2018-11-12T03:52:19.310Z,99.99
2018-11-12T03:53:19.905Z,99.99
2018-11-12T03:54:20.503Z,99.99
2018-11-12T03:55:21.099Z,99.99
2018-11-12T03:56:21.698Z,99.99
2018-11-12T03:57:22.293Z,99.99
2018-11-12T03:58:22.891Z,99.99
2018-11-12T03:59:23.484Z,99.99
2018-11-12T04:00:24.144Z,99.99
2018-11-12T04:01:24.674Z,99.99
2018-11-12T04:02:25.286Z,99.99
2018-11-12T04:03:25.860Z,99.99
2018-11-12T04:04:26.473Z,99.99
2018-11-12T04:05:27.050Z,99.99
2018-11-12T04:06:27.645Z,99.99
2018-11-12T04:07:28.246Z,99.99
2018-11-12T04:08:28.838Z,99.99
2018-11-12T04:09:29.429Z,99.99
2018-11-12T04:10:30.023Z,99.99
2018-11-12T04:11:30.621Z,99.99
2018-11-12T04:12:31.217Z,99.99
2018-11-12T04:13:31.818Z,99.99
2018-11-12T04:14:32.403Z,99.99
2018-11-12T04:15:32.998Z,99.99
2018-11-12T04:16:33.589Z,99.99
2018-11-12T04:17:34.185Z,99.99
2018-11-12T04:18:34.774Z,99.99
2018-11-12T04:19:35.375Z,99.99
2018-11-12T04:20:35.974Z,99.99
2018-11-12T04:21:36.569Z,99.99
2018-11-12T04:22:37.166Z,99.99
2018-11-12T04:23:37.759Z,99.99
2018-11-12T04:24:38.354Z,99.99
2018-11-12T04:25:38.954Z,99.99
2018-11-12T04:26:39.551Z,99.99
2018-11-12T04:27:40.142Z,99.99
2018-11-12T04:28:40.745Z,99.99
2018-11-12T04:29:41.341Z,99.99
2018-11-12T04:30:41.938Z,99.99
2018-11-12T04:31:42.527Z,99.99
2018-11-12T04:32:43.122Z,99.99
2018-11-12T04:33:43.719Z,99.99
2018-11-12T04:34:44.313Z,99.99
2018-11-12T04:35:44.912Z,99.99
2018-11-12T04:36:45.505Z,99.99
2018-11-12T04:37:46.103Z,99.99
2018-11-12T04:38:46.700Z,99.99
2018-11-12T04:39:47.296Z,99.99
2018-11-12T04:40:47.892Z,99.99
2018-11-12T04:41:48.492Z,99.99
2018-11-12T04:42:49.088Z,99.99
2018-11-12T04:43:49.683Z,99.99
2018-11-12T04:44:50.281Z,99.99
2018-11-12T04:45:50.869Z,99.99
2018-11-12T04:46:51.461Z,99.99
2018-11-12T04:47:52.055Z,99.99
2018-11-12T04:48:52.652Z,99.99
2018-11-12T04:49:53.246Z,99.99
2018-11-12T04:50:53.843Z,99.99
2018-11-12T04:51:54.434Z,99.99
2018-11-12T04:52:55.032Z,99.99
2018-11-12T04:53:55.647Z,99.99
2018-11-12T04:54:56.223Z,99.99
2018-11-12T04:55:56.805Z,99.99
2018-11-12T04:56:57.398Z,99.99
2018-11-12T04:57:57.998Z,99.99
2018-11-12T04:58:58.592Z,99.99
2018-11-12T04:59:59.189Z,99.99
2018-11-12T05:00:59.785Z,99.99
2018-11-12T05:02:00.468Z,99.99
2018-11-12T05:03:00.970Z,99.99
2018-11-12T05:04:01.567Z,99.99
2018-11-12T05:05:02.162Z,99.99
2018-11-12T05:06:02.761Z,99.99
2018-11-12T05:07:03.362Z,99.99
2018-11-12T05:08:03.952Z,99.99
2018-11-12T05:09:04.551Z,99.99
2018-11-12T05:10:05.151Z,99.99
2018-11-12T05:11:05.749Z,99.99
2018-11-12T05:12:06.342Z,99.99
2018-11-12T05:13:06.934Z,99.99
2018-11-12T05:14:07.526Z,99.99
2018-11-12T05:15:08.139Z,99.99
2018-11-12T05:16:08.720Z,99.99
2018-11-12T05:17:09.315Z,99.99
2018-11-12T05:18:09.915Z,99.99
2018-11-12T05:19:10.509Z,99.99
2018-11-12T05:20:11.106Z,99.99
2018-11-12T05:21:11.699Z,99.99
2018-11-12T05:22:12.295Z,99.99
2018-11-12T05:23:12.896Z,99.99
2018-11-12T05:24:13.482Z,99.99
2018-11-12T05:25:14.076Z,99.99
2018-11-12T05:26:14.671Z,99.99
2018-11-12T05:27:15.277Z,99.99
2018-11-12T05:28:15.856Z,99.99
2018-11-12T05:29:16.450Z,99.99
2018-11-12T05:30:17.044Z,99.99
2018-11-12T05:31:17.639Z,99.99
2018-11-12T05:32:18.237Z,99.99
2018-11-12T05:33:18.834Z,99.99
2018-11-12T05:34:19.432Z,99.99
2018-11-12T05:35:20.021Z,99.99
2018-11-12T05:36:20.609Z,99.99
2018-11-12T05:37:21.202Z,99.99
2018-11-12T05:38:21.853Z,99.99
2018-11-12T05:39:22.388Z,99.99
2018-11-12T05:40:22.984Z,99.99
2018-11-12T05:41:23.574Z,99.99
2018-11-12T05:42:24.165Z,99.99
2018-11-12T05:43:24.758Z,99.99
2018-11-12T05:44:25.349Z,99.99
2018-11-12T05:45:25.943Z,99.99
2018-11-12T05:46:26.541Z,99.99
2018-11-12T05:47:27.135Z,99.99
2018-11-12T05:48:27.730Z,99.99
2018-11-12T05:49:28.329Z,99.99
2018-11-12T05:50:28.924Z,99.99
2018-11-12T05:51:29.576Z,99.99
2018-11-12T05:52:30.109Z,99.99
2018-11-12T05:53:30.706Z,99.99
2018-11-12T05:54:31.306Z,99.99
2018-11-12T05:55:31.956Z,99.99
2018-11-12T05:56:32.551Z,99.99
2018-11-12T05:57:33.151Z,99.99
2018-11-12T05:58:33.744Z,99.99
2018-11-12T05:59:34.340Z,99.99
2018-11-12T06:00:35.004Z,99.99
2018-11-12T06:01:35.589Z,99.99
2018-11-12T06:02:36.191Z,99.99
2018-11-12T06:03:36.829Z,99.99
2018-11-12T06:04:37.432Z,99.99
2018-11-12T06:05:38.021Z,99.99
2018-11-12T06:06:38.611Z,99.99
2018-11-12T06:07:39.254Z,99.99
2018-11-12T06:08:39.818Z,99.99
2018-11-12T06:09:40.413Z,99.99
2018-11-12T06:10:41.013Z,99.99
2018-11-12T06:11:41.593Z,99.99
2018-11-12T06:12:42.192Z,99.99
2018-11-12T06:13:42.785Z,99.99
2018-11-12T06:14:43.373Z,99.99
2018-11-12T06:15:43.962Z,99.99
2018-11-12T06:16:44.557Z,99.99
2018-11-12T06:17:45.160Z,99.99
2018-11-12T06:18:45.754Z,99.99
2018-11-12T06:19:46.374Z,99.99
2018-11-12T06:20:46.938Z,99.99
2018-11-12T06:21:47.537Z,99.99
2018-11-12T06:22:48.200Z,99.99
2018-11-12T06:23:48.722Z,99.99
2018-11-12T06:24:49.323Z,99.99
2018-11-12T06:25:49.915Z,99.99
2018-11-12T06:26:50.503Z,99.99
2018-11-12T06:27:51.099Z,99.99
2018-11-12T06:28:51.698Z,99.99
2018-11-12T06:29:52.293Z,99.99
2018-11-12T06:30:52.889Z,99.99
2018-11-12T06:31:53.485Z,99.99
2018-11-12T06:32:54.088Z,99.99
2018-11-12T06:33:54.673Z,99.99
2018-11-12T06:34:55.274Z,99.99
2018-11-12T06:35:55.865Z,99.99
2018-11-12T06:36:56.501Z,99.99
2018-11-12T06:37:57.061Z,99.99
2018-11-12T06:38:57.655Z,99.99
2018-11-12T06:39:58.255Z,99.99
2018-11-12T06:40:58.854Z,99.99
2018-11-12T06:41:59.443Z,99.99
2018-11-12T06:43:00.109Z,99.99
2018-11-12T06:44:00.629Z,99.99
2018-11-12T06:45:01.226Z,99.99
2018-11-12T06:46:01.819Z,99.99
2018-11-12T06:47:02.409Z,99.99
2018-11-12T06:48:03.008Z,99.99
2018-11-12T06:49:03.602Z,99.99
2018-11-12T06:50:04.199Z,99.99
2018-11-12T06:51:04.795Z,99.99
2018-11-12T06:52:05.393Z,99.99
2018-11-12T06:53:06.115Z,99.99
2018-11-12T06:54:06.577Z,99.99
2018-11-12T06:55:07.179Z,99.99
2018-11-12T06:56:07.776Z,99.99
2018-11-12T06:57:08.378Z,99.99
2018-11-12T06:58:08.971Z,99.99
2018-11-12T06:59:09.581Z,99.99
2018-11-12T07:00:10.248Z,99.99
2018-11-12T07:01:10.754Z,99.99
2018-11-12T07:02:11.355Z,99.99
2018-11-12T07:03:11.945Z,99.99
2018-11-12T07:04:12.543Z,99.99
2018-11-12T07:05:13.150Z,99.99
2018-11-12T07:06:13.768Z,99.99
2018-11-12T07:07:14.347Z,99.99
2018-11-12T07:08:14.943Z,99.99
2018-11-12T07:09:15.543Z,99.99
2018-11-12T07:10:16.135Z,99.99
2018-11-12T07:11:16.735Z,99.99
2018-11-12T07:12:18.688Z,99.99
2018-11-12T07:13:19.331Z,99.99
2018-11-12T07:14:19.880Z,99.99
2018-11-12T07:15:20.483Z,99.99
2018-11-12T07:16:21.129Z,99.99
2018-11-12T07:17:21.755Z,99.99
2018-11-12T07:18:22.330Z,99.99
2018-11-12T07:19:22.923Z,99.99
2018-11-12T07:20:23.562Z,99.99
2018-11-12T07:21:24.156Z,99.99
2018-11-12T07:22:24.811Z,99.99
2018-11-12T07:23:25.420Z,99.99
2018-11-12T07:24:26.063Z,99.99
2018-11-12T07:25:26.704Z,99.99
2018-11-12T07:26:27.252Z,99.99
2018-11-12T07:27:27.865Z,99.99
2018-11-12T07:28:28.466Z,99.99
2018-11-12T07:29:29.061Z,99.99
2018-11-12T07:30:29.665Z,99.99
2018-11-12T07:31:30.262Z,99.99
2018-11-12T07:32:30.863Z,99.99
2018-11-12T07:33:31.467Z,99.99
2018-11-12T07:34:32.094Z,99.99
2018-11-12T07:35:32.658Z,99.99
2018-11-12T07:36:33.258Z,99.99
2018-11-12T07:37:33.857Z,99.99
2018-11-12T07:38:34.460Z,99.99
2018-11-12T07:39:35.058Z,99.99
2018-11-12T07:40:35.659Z,99.99
2018-11-12T07:41:36.259Z,99.99
2018-11-12T07:42:36.860Z,99.99
2018-11-12T07:43:37.461Z,99.99
2018-11-12T07:44:38.059Z,99.99
2018-11-12T07:45:38.657Z,99.99
2018-11-12T07:46:39.257Z,99.99
2018-11-12T07:47:39.858Z,99.99
2018-11-12T07:48:40.536Z,99.99
2018-11-12T07:49:41.060Z,99.99
2018-11-12T07:50:41.660Z,99.99
2018-11-12T07:51:42.292Z,99.99
2018-11-12T07:52:42.859Z,99.99
2018-11-12T07:53:43.558Z,99.99
2018-11-12T07:54:44.356Z,99.99
2018-11-12T07:55:44.953Z,99.99
2018-11-12T07:56:45.545Z,99.99
2018-11-12T07:57:46.148Z,99.99
2018-11-12T07:58:46.743Z,99.99
2018-11-12T07:59:47.345Z,99.99
2018-11-12T08:00:47.940Z,99.99
2018-11-12T08:01:48.539Z,99.99
2018-11-12T08:02:49.157Z,99.99
2018-11-12T08:03:49.803Z,99.99
2018-11-12T08:04:50.349Z,99.99
2018-11-12T08:05:50.942Z,99.99
2018-11-12T08:06:51.547Z,99.99
2018-11-12T08:07:52.167Z,99.99
2018-11-12T08:08:52.790Z,99.99
2018-11-12T08:09:53.348Z,99.99
2018-11-12T08:10:53.947Z,99.99
2018-11-12T08:11:54.580Z,99.99
2018-11-12T08:12:55.144Z,99.99
2018-11-12T08:13:55.749Z,99.99
2018-11-12T08:14:56.365Z,99.99
2018-11-12T08:15:56.965Z,99.99
2018-11-12T08:16:57.572Z,99.99
2018-11-12T08:17:58.179Z,99.99
2018-11-12T08:18:58.780Z,99.99
2018-11-12T08:19:59.379Z,99.99
2018-11-12T08:20:59.985Z,99.99
2018-11-12T08:22:00.583Z,99.99
2018-11-12T08:23:01.190Z,99.99
2018-11-12T08:24:01.910Z,99.99
2018-11-12T08:25:02.415Z,99.99
2018-11-12T08:26:03.024Z,99.99
2018-11-12T08:27:03.633Z,99.99
2018-11-12T08:28:04.243Z,99.99
2018-11-12T08:29:04.843Z,99.99
2018-11-12T08:30:05.508Z,99.99
2018-11-12T08:31:06.054Z,99.99
2018-11-12T08:32:06.658Z,99.99
2018-11-12T08:33:07.336Z,99.99
2018-11-12T08:34:07.870Z,99.99
2018-11-12T08:35:08.478Z,99.99
2018-11-12T08:36:09.115Z,99.99
2018-11-12T08:37:09.692Z,99.99
2018-11-12T08:38:10.299Z,99.99
2018-11-12T08:39:10.969Z,99.99
2018-11-12T08:40:11.596Z,99.99
2018-11-12T08:41:12.177Z,99.99
2018-11-12T08:42:12.740Z,99.99
2018-11-12T08:43:13.388Z,99.99
2018-11-12T08:44:13.976Z,99.99
2018-11-12T08:45:14.571Z,99.99
2018-11-12T08:46:15.236Z,99.99
2018-11-12T08:47:15.879Z,99.99
2018-11-12T08:48:16.541Z,99.99
2018-11-12T08:49:17.119Z,99.99
2018-11-12T08:50:17.686Z,99.99
2018-11-12T08:51:18.297Z,99.99
2018-11-12T08:52:18.979Z,99.99
2018-11-12T08:53:19.517Z,99.99
2018-11-12T08:54:20.212Z,99.99
2018-11-12T08:55:20.769Z,99.99
2018-11-12T08:56:21.339Z,99.99
2018-11-12T08:57:21.942Z,99.99
2018-11-12T08:58:22.542Z,99.99
2018-11-12T08:59:23.264Z,99.99
2018-11-12T09:00:24.157Z,99.99
2018-11-12T09:01:24.761Z,99.99
2018-11-12T09:02:25.380Z,99.99
2018-11-12T09:03:25.974Z,99.99
2018-11-12T09:04:28.120Z,99.99
2018-11-12T09:05:29.405Z,99.99
2018-11-12T09:06:30.029Z,99.99
2018-11-12T09:07:30.713Z,99.99
2018-11-12T09:08:32.030Z,99.99
2018-11-12T09:09:34.841Z,99.99
2018-11-12T09:10:36.661Z,99.99
2018-11-12T09:11:37.330Z,99.99
2018-11-12T09:12:38.665Z,99.99
2018-11-12T09:13:40.136Z,99.99
2018-11-12T09:14:41.656Z,99.99
2018-11-12T09:15:43.423Z,99.99
2018-11-12T09:16:45.149Z,99.99
2018-11-12T09:17:46.871Z,99.99
2018-11-12T09:18:48.177Z,99.99
2018-11-12T09:19:49.374Z,99.99
2018-11-12T09:20:51.007Z,99.99
2018-11-12T09:21:51.958Z,99.99
2018-11-12T09:22:53.877Z,99.99
2018-11-12T09:23:56.716Z,99.99
2018-11-12T09:24:59.143Z,99.99
2018-11-12T09:41:29.379Z,99.99
2018-11-12T09:42:30.820Z,99.99
2018-11-12T09:43:31.832Z,99.99
2018-11-12T09:44:32.643Z,99.99
2018-11-12T09:45:34.120Z,99.99
2018-11-12T09:46:37.873Z,99.99
2018-11-12T09:47:39.345Z,99.99
2018-11-12T09:48:41.181Z,99.99
2018-11-12T09:49:42.751Z,99.99
2018-11-12T09:50:44.377Z,99.99
2018-11-12T09:51:45.184Z,99.99
2018-11-12T09:52:47.300Z,99.99
2018-11-12T09:53:50.604Z,99.99
2018-11-12T09:54:52.477Z,99.99
2018-11-12T09:55:55.318Z,99.99
2018-11-12T10:26:45.399Z,93.19
2018-11-12T10:27:46.753Z,91.89
2018-11-12T10:28:47.734Z,90.26
2018-11-12T10:29:48.402Z,91.22
2018-11-12T10:30:48.930Z,89.78
2018-11-12T10:31:49.544Z,91.03
2018-11-12T10:32:50.162Z,91.51
2018-11-12T10:33:50.803Z,91.12
2018-11-12T10:34:51.388Z,86.83
2018-11-12T10:35:51.993Z,86.93
2018-11-12T10:36:52.609Z,87.37
2018-11-12T10:37:53.221Z,88.04
2018-11-12T10:38:53.827Z,88.00
2018-11-12T10:39:54.446Z,89.21
2018-11-12T10:40:55.119Z,91.03
2018-11-12T10:41:55.659Z,91.80
2018-11-12T10:42:56.328Z,93.77
2018-11-12T10:43:56.933Z,92.72
2018-11-12T10:44:57.546Z,93.15
2018-11-12T10:45:58.160Z,94.31
2018-11-12T10:46:58.766Z,94.31
2018-11-12T10:47:59.428Z,94.01
2018-11-12T10:48:59.985Z,94.49
2018-11-12T10:50:00.593Z,94.78
2018-11-12T10:51:05.168Z,95.31
2018-11-12T10:52:01.836Z,94.30
2018-11-12T10:53:02.607Z,94.30
2018-11-12T10:54:03.510Z,92.33
2018-11-12T10:55:05.631Z,91.03
2018-11-12T10:56:05.539Z,90.65
2018-11-12T10:57:06.112Z,90.99
2018-11-12T10:58:06.709Z,92.00
2018-11-12T10:59:07.332Z,93.25
2018-11-12T11:00:07.962Z,94.31
2018-11-12T11:01:08.530Z,94.74
2018-11-12T11:02:09.140Z,95.12
2018-11-12T11:03:09.746Z,95.75
2018-11-12T11:04:10.355Z,96.32
2018-11-12T11:05:10.967Z,97.19
2018-11-12T11:06:11.579Z,97.09
2018-11-12T11:07:12.194Z,96.85
2018-11-12T11:08:12.877Z,97.14
2018-11-12T11:09:13.413Z,97.71
2018-11-12T11:10:14.025Z,98.57
2018-11-12T11:11:14.632Z,98.67
2018-11-12T11:12:15.238Z,99.15
2018-11-12T11:13:15.855Z,99.44
2018-11-12T11:14:16.452Z,98.19
2018-11-12T11:15:17.137Z,99.05
2018-11-12T11:16:17.671Z,99.24
2018-11-12T11:17:18.274Z,99.82
2018-11-12T11:18:18.878Z,99.99
2018-11-12T11:19:19.498Z,99.99
2018-11-12T11:20:20.110Z,99.15
2018-11-12T11:21:20.850Z,97.04
2018-11-12T11:22:21.310Z,97.71
2018-11-12T11:23:21.926Z,97.61
2018-11-12T11:24:22.538Z,97.71
2018-11-12T11:25:23.145Z,99.20
2018-11-12T11:26:23.750Z,98.24
2018-11-12T11:27:24.366Z,98.53
2018-11-12T11:28:24.974Z,98.96
2018-11-12T11:29:25.588Z,99.73
2018-11-12T11:30:26.193Z,99.99
2018-11-12T11:31:26.803Z,99.99
2018-11-12T11:32:27.406Z,99.05
2018-11-12T11:33:28.016Z,99.34
2018-11-12T11:34:28.621Z,99.73
2018-11-12T11:35:29.232Z,99.99
2018-11-12T11:36:29.844Z,99.99
2018-11-12T11:37:30.452Z,99.82
2018-11-12T11:38:31.049Z,99.63
2018-11-12T11:39:31.655Z,99.91
2018-11-12T11:40:32.302Z,99.63
2018-11-12T11:41:32.866Z,99.99
2018-11-12T11:42:33.471Z,99.96
2018-11-12T11:43:34.081Z,99.99
2018-11-12T11:44:34.685Z,99.99
2018-11-12T11:45:35.295Z,99.99
2018-11-12T11:46:35.912Z,99.99
2018-11-12T11:47:36.568Z,99.99
2018-11-12T11:48:37.111Z,99.99
2018-11-12T11:49:37.717Z,99.99
2018-11-12T11:50:38.341Z,99.99
2018-11-12T11:51:38.962Z,99.99
2018-11-12T11:52:39.643Z,99.99
2018-11-12T11:53:40.253Z,99.99
2018-11-12T11:54:40.865Z,99.99
2018-11-12T11:55:41.523Z,99.99
2018-11-12T11:56:42.232Z,99.99
2018-11-12T11:57:42.781Z,99.99
2018-11-12T11:58:43.342Z,99.99
2018-11-12T11:59:43.950Z,99.99
2018-11-12T12:00:44.560Z,99.99
2018-11-12T12:01:45.191Z,99.99
2018-11-12T12:02:45.803Z,99.99
2018-11-12T12:03:46.380Z,99.99
2018-11-12T12:04:46.994Z,99.99
2018-11-12T12:05:47.654Z,99.99
2018-11-12T12:06:48.337Z,99.99
2018-11-12T12:07:48.895Z,99.99
2018-11-12T12:08:49.601Z,99.99
2018-11-12T12:09:50.111Z,99.99
2018-11-12T12:10:50.723Z,99.99
2018-11-12T12:11:51.331Z,99.99
2018-11-12T12:12:51.942Z,99.99
2018-11-12T12:13:52.619Z,99.99
2018-11-12T12:14:53.227Z,99.99
2018-11-12T12:15:53.835Z,99.99
2018-11-12T12:16:54.434Z,99.99
2018-11-12T12:17:55.039Z,99.99
2018-11-12T12:18:55.649Z,99.99
2018-11-12T12:19:56.312Z,99.99
2018-11-12T12:20:56.910Z,99.99
2018-11-12T12:21:57.468Z,99.99
2018-11-12T12:22:58.075Z,99.99
2018-11-12T12:23:58.679Z,99.99
2018-11-12T12:24:59.377Z,99.99
2018-11-12T12:25:59.997Z,99.99
2018-11-12T12:27:00.491Z,99.99
2018-11-12T12:28:01.092Z,99.99
2018-11-12T12:29:01.692Z,99.99
2018-11-12T12:30:02.291Z,99.99
2018-11-12T12:31:02.892Z,99.99
2018-11-12T12:32:03.507Z,99.99
2018-11-12T12:33:04.105Z,99.99
2018-11-12T12:34:04.771Z,99.99
2018-11-12T12:35:05.323Z,99.99
2018-11-12T12:36:06.182Z,99.99
2018-11-12T12:37:06.553Z,99.99
2018-11-12T12:38:07.148Z,99.99
2018-11-12T12:39:07.752Z,99.99
2018-11-12T12:40:08.364Z,99.99
2018-11-12T12:41:08.965Z,99.99
2018-11-12T12:42:09.564Z,99.99
2018-11-12T12:43:10.174Z,99.99
2018-11-12T12:44:10.810Z,99.99
2018-11-12T12:45:11.436Z,99.99
2018-11-12T12:46:11.990Z,99.99
2018-11-12T12:47:12.597Z,99.99
2018-11-12T12:48:13.198Z,99.99
2018-11-12T12:49:13.806Z,99.99
2018-11-12T12:50:14.413Z,99.99
2018-11-12T12:51:15.034Z,99.99
2018-11-12T12:52:15.624Z,99.99
2018-11-12T12:53:16.233Z,99.99
2018-11-12T12:54:16.831Z,99.99
2018-11-12T12:55:17.460Z,99.99
2018-11-12T12:56:18.069Z,99.99
2018-11-12T12:57:18.653Z,99.99
2018-11-12T12:58:19.287Z,99.99
2018-11-12T12:59:19.857Z,99.99
2018-11-12T13:00:20.459Z,99.99
2018-11-12T13:01:21.127Z,99.99
2018-11-12T13:02:21.705Z,99.99
2018-11-12T13:03:22.306Z,99.99
2018-11-12T13:04:22.889Z,99.99
2018-11-12T13:05:23.498Z,99.99
2018-11-12T13:06:24.130Z,99.99
2018-11-12T13:07:24.743Z,99.99
2018-11-12T13:08:25.294Z,99.99
2018-11-12T13:09:25.897Z,99.99
2018-11-12T13:10:26.503Z,99.99
2018-11-12T13:11:27.104Z,99.99
2018-11-12T13:12:27.713Z,99.99
2018-11-12T13:13:28.337Z,99.99
2018-11-12T13:14:29.004Z,99.99
2018-11-12T13:15:29.528Z,99.99
2018-11-12T13:16:30.194Z,99.99
2018-11-12T13:17:30.784Z,99.99
2018-11-12T13:18:31.395Z,99.99
2018-11-12T13:19:32.025Z,99.99
2018-11-12T13:20:32.646Z,99.99
2018-11-12T13:21:33.267Z,99.99
2018-11-12T13:22:33.897Z,99.99
2018-11-12T13:23:34.485Z,99.99
2018-11-12T13:24:35.091Z,99.99
2018-11-12T13:25:35.698Z,99.99
2018-11-12T13:26:36.295Z,99.99
2018-11-12T13:27:36.901Z,99.99
2018-11-12T13:28:37.507Z,99.99
2018-11-12T13:29:38.175Z,99.99
2018-11-12T13:30:38.753Z,99.99
2018-11-12T13:31:39.360Z,99.99
2018-11-12T13:32:40.006Z,99.99
2018-11-12T13:33:40.608Z,99.99
2018-11-12T13:34:41.209Z,99.99
2018-11-12T13:35:41.813Z,99.99
2018-11-12T13:36:42.415Z,99.99
2018-11-12T13:37:43.022Z,99.99
2018-11-12T13:38:43.628Z,99.99
2018-11-12T13:39:44.231Z,99.99
2018-11-12T13:40:44.838Z,99.99
2018-11-12T13:41:45.444Z,99.99
2018-11-12T13:42:46.054Z,99.99
2018-11-12T13:43:46.647Z,99.99
2018-11-12T13:44:47.253Z,99.99
2018-11-12T13:45:47.863Z,99.99